createdAt,value
2017-04-01T00:01:11.133Z,1007.25
2017-04-01T00:02:11.070Z,1007.24
2017-04-01T00:03:11.008Z,1007.23
2017-04-01T00:04:10.946Z,1007.23
2017-04-01T00:05:10.892Z,1007.18
2017-04-01T00:06:10.824Z,1007.22
2017-04-01T00:07:10.762Z,1007.17
2017-04-01T00:08:10.700Z,1007.18
2017-04-01T00:09:10.639Z,1007.18
2017-04-01T00:10:10.578Z,1007.19
2017-04-01T00:11:10.514Z,1007.16
2017-04-01T00:12:10.454Z,1007.16
2017-04-01T00:13:10.392Z,1007.17
2017-04-01T00:14:10.331Z,1007.21
2017-04-01T00:15:10.269Z,1007.18
2017-04-01T00:16:10.207Z,1007.13
2017-04-01T00:17:10.147Z,1007.16
2017-04-01T00:18:10.085Z,1007.15
2017-04-01T00:19:10.024Z,1007.1
2017-04-01T00:20:09.962Z,1007.14
2017-04-01T00:21:09.900Z,1007.09
2017-04-01T00:22:09.838Z,1007.12
2017-04-01T00:23:09.777Z,1007.1
2017-04-01T00:24:09.715Z,1007.13
2017-04-01T00:25:09.656Z,1007.1
2017-04-01T00:26:09.591Z,1007.13
2017-04-01T00:27:09.530Z,1007.08
2017-04-01T00:28:09.469Z,1007.09
2017-04-01T00:29:09.408Z,1007.1
2017-04-01T00:30:09.345Z,1007.08
2017-04-01T00:31:09.286Z,1007.09
2017-04-01T00:32:09.223Z,1007.07
2017-04-01T00:33:09.160Z,1007.08
2017-04-01T00:34:09.100Z,1007.08
2017-04-01T00:35:09.039Z,1007.11
2017-04-01T00:36:08.977Z,1007.1
2017-04-01T00:37:08.915Z,1007.11
2017-04-01T00:38:08.854Z,1007.08
2017-04-01T00:39:08.792Z,1007.07
2017-04-01T00:40:08.731Z,1007.08
2017-04-01T00:41:08.668Z,1007.07
2017-04-01T00:42:08.608Z,1007.03
2017-04-01T00:43:08.546Z,1007.07
2017-04-01T00:44:08.483Z,1007.07
2017-04-01T00:45:08.422Z,1007.06
2017-04-01T00:46:08.362Z,1007.09
2017-04-01T00:47:08.300Z,1007.05
2017-04-01T00:48:08.237Z,1007.05
2017-04-01T00:49:08.176Z,1007.01
2017-04-01T00:50:08.116Z,1007.03
2017-04-01T00:51:08.053Z,1006.99
2017-04-01T00:52:07.991Z,1007.02
2017-04-01T00:53:07.930Z,1007.02
2017-04-01T00:54:07.870Z,1007.01
2017-04-01T00:55:07.806Z,1007
2017-04-01T00:56:07.745Z,1007.02
2017-04-01T00:57:07.685Z,1007.01
2017-04-01T00:58:07.623Z,1006.99
2017-04-01T00:59:07.560Z,1006.97
2017-04-01T01:00:07.501Z,1006.96
2017-04-01T01:01:07.438Z,1006.98
2017-04-01T01:02:07.376Z,1006.98
2017-04-01T01:03:07.665Z,1006.98
2017-04-01T01:04:07.253Z,1006.96
2017-04-01T01:05:07.193Z,1006.94
2017-04-01T01:06:07.131Z,1006.95
2017-04-01T01:07:07.073Z,1006.93
2017-04-01T01:08:07.007Z,1006.94
2017-04-01T01:09:06.946Z,1006.94
2017-04-01T01:10:06.884Z,1006.93
2017-04-01T01:11:06.822Z,1006.92
2017-04-01T01:12:06.760Z,1006.93
2017-04-01T01:13:06.701Z,1006.92
2017-04-01T01:14:06.637Z,1006.93
2017-04-01T01:15:06.577Z,1006.93
2017-04-01T01:16:06.515Z,1006.92
2017-04-01T01:17:06.452Z,1006.89
2017-04-01T01:18:06.391Z,1006.89
2017-04-01T01:19:06.330Z,1006.89
2017-04-01T01:20:06.270Z,1006.86
2017-04-01T01:21:06.205Z,1006.88
2017-04-01T01:22:06.144Z,1006.91
2017-04-01T01:23:06.084Z,1006.92
2017-04-01T01:24:06.022Z,1006.89
2017-04-01T01:25:05.960Z,1006.86
2017-04-01T01:26:05.898Z,1006.88
2017-04-01T01:27:05.837Z,1006.88
2017-04-01T01:28:05.774Z,1006.89
2017-04-01T01:29:05.714Z,1006.88
2017-04-01T01:30:05.652Z,1006.91
2017-04-01T01:31:05.593Z,1006.89
2017-04-01T01:32:05.530Z,1006.93
2017-04-01T01:33:05.468Z,1006.9
2017-04-01T01:34:05.406Z,1006.94
2017-04-01T01:35:05.345Z,1006.9
2017-04-01T01:36:05.283Z,1006.89
2017-04-01T01:37:05.223Z,1006.88
2017-04-01T01:38:05.161Z,1006.88
2017-04-01T01:39:05.098Z,1006.9
2017-04-01T01:40:05.037Z,1006.85
2017-04-01T01:41:04.976Z,1006.86
2017-04-01T01:42:04.917Z,1006.86
2017-04-01T01:43:04.853Z,1006.91
2017-04-01T01:44:04.791Z,1006.89
2017-04-01T01:45:04.731Z,1006.83
2017-04-01T01:46:04.668Z,1006.84
2017-04-01T01:47:04.607Z,1006.84
2017-04-01T01:48:04.546Z,1006.79
2017-04-01T01:49:04.483Z,1006.83
2017-04-01T01:50:04.421Z,1006.8
2017-04-01T01:51:04.362Z,1006.77
2017-04-01T01:52:04.299Z,1006.78
2017-04-01T01:53:04.237Z,1006.77
2017-04-01T01:54:04.177Z,1006.76
2017-04-01T01:55:04.115Z,1006.75
2017-04-01T01:56:04.053Z,1006.78
2017-04-01T01:57:03.991Z,1006.76
2017-04-01T01:58:03.929Z,1006.73
2017-04-01T01:59:03.868Z,1006.72
2017-04-01T02:00:03.807Z,1006.71
2017-04-01T02:01:03.745Z,1006.68
2017-04-01T02:02:03.682Z,1006.66
2017-04-01T02:03:03.623Z,1006.63
2017-04-01T02:04:03.561Z,1006.66
2017-04-01T02:05:03.498Z,1006.67
2017-04-01T02:06:03.437Z,1006.66
2017-04-01T02:07:03.377Z,1006.65
2017-04-01T02:08:03.313Z,1006.61
2017-04-01T02:09:03.252Z,1006.64
2017-04-01T02:10:03.190Z,1006.65
2017-04-01T02:11:03.129Z,1006.67
2017-04-01T02:12:03.067Z,1006.62
2017-04-01T02:13:03.006Z,1006.69
2017-04-01T02:14:02.944Z,1006.67
2017-04-01T02:15:02.882Z,1006.66
2017-04-01T02:16:02.822Z,1006.68
2017-04-01T02:17:02.762Z,1006.71
2017-04-01T02:18:02.699Z,1006.71
2017-04-01T02:19:02.636Z,1006.74
2017-04-01T02:20:02.576Z,1006.74
2017-04-01T02:21:02.557Z,1006.76
2017-04-01T02:22:02.452Z,1006.73
2017-04-01T02:23:02.391Z,1006.75
2017-04-01T02:24:02.329Z,1006.72
2017-04-01T02:25:02.277Z,1006.75
2017-04-01T02:26:02.206Z,1006.74
2017-04-01T02:27:02.143Z,1006.69
2017-04-01T02:28:02.087Z,1006.74
2017-04-01T02:29:02.022Z,1006.73
2017-04-01T02:30:01.959Z,1006.75
2017-04-01T02:31:01.909Z,1006.73
2017-04-01T02:32:01.837Z,1006.75
2017-04-01T02:33:01.776Z,1006.73
2017-04-01T02:34:01.713Z,1006.78
2017-04-01T02:35:01.651Z,1006.79
2017-04-01T02:36:01.590Z,1006.76
2017-04-01T02:37:01.528Z,1006.77
2017-04-01T02:38:01.473Z,1006.74
2017-04-01T02:39:01.406Z,1006.76
2017-04-01T02:40:01.375Z,1006.8
2017-04-01T02:41:01.281Z,1006.8
2017-04-01T02:42:01.220Z,1006.77
2017-04-01T02:43:01.159Z,1006.77
2017-04-01T02:44:01.133Z,1006.79
2017-04-01T02:45:01.035Z,1006.78
2017-04-01T02:46:00.977Z,1006.78
2017-04-01T02:47:00.912Z,1006.79
2017-04-01T02:48:00.851Z,1006.82
2017-04-01T02:49:00.789Z,1006.79
2017-04-01T02:50:00.728Z,1006.82
2017-04-01T02:51:00.701Z,1006.85
2017-04-01T02:52:00.605Z,1006.81
2017-04-01T02:53:00.542Z,1006.79
2017-04-01T02:54:00.481Z,1006.79
2017-04-01T02:55:00.420Z,1006.8
2017-04-01T02:56:00.358Z,1006.77
2017-04-01T02:57:00.297Z,1006.78
2017-04-01T02:58:00.235Z,1006.73
2017-04-01T02:59:00.174Z,1006.76
2017-04-01T03:00:00.112Z,1006.71
2017-04-01T03:01:00.051Z,1006.73
2017-04-01T03:01:59.989Z,1006.71
2017-04-01T03:02:59.926Z,1006.71
2017-04-01T03:03:59.866Z,1006.7
2017-04-01T03:04:59.804Z,1006.73
2017-04-01T03:05:59.743Z,1006.75
2017-04-01T03:06:59.681Z,1006.74
2017-04-01T03:07:59.619Z,1006.77
2017-04-01T03:08:59.557Z,1006.76
2017-04-01T03:09:59.498Z,1006.77
2017-04-01T03:10:59.435Z,1006.76
2017-04-01T03:11:59.374Z,1006.74
2017-04-01T03:12:59.342Z,1006.78
2017-04-01T03:13:59.251Z,1006.75
2017-04-01T03:14:59.189Z,1006.77
2017-04-01T03:15:59.127Z,1006.8
2017-04-01T03:16:59.080Z,1006.76
2017-04-01T03:17:59.003Z,1006.78
2017-04-01T03:18:58.944Z,1006.79
2017-04-01T03:19:58.881Z,1006.78
2017-04-01T03:20:58.818Z,1006.78
2017-04-01T03:21:58.758Z,1006.83
2017-04-01T03:22:58.707Z,1006.81
2017-04-01T03:23:58.635Z,1006.81
2017-04-01T03:24:58.574Z,1006.85
2017-04-01T03:25:58.511Z,1006.86
2017-04-01T03:26:58.450Z,1006.82
2017-04-01T03:27:58.389Z,1006.83
2017-04-01T03:28:58.327Z,1006.8
2017-04-01T03:29:58.265Z,1006.76
2017-04-01T03:30:58.204Z,1006.78
2017-04-01T03:31:58.141Z,1006.78
2017-04-01T03:32:58.080Z,1006.79
2017-04-01T03:33:58.019Z,1006.78
2017-04-01T03:34:57.958Z,1006.75
2017-04-01T03:35:57.895Z,1006.79
2017-04-01T03:36:57.834Z,1006.75
2017-04-01T03:37:57.773Z,1006.76
2017-04-01T03:38:57.711Z,1006.76
2017-04-01T03:39:57.650Z,1006.75
2017-04-01T03:40:57.588Z,1006.76
2017-04-01T03:41:57.527Z,1006.75
2017-04-01T03:42:57.463Z,1006.75
2017-04-01T03:43:57.404Z,1006.78
2017-04-01T03:44:57.377Z,1006.74
2017-04-01T03:45:57.282Z,1006.76
2017-04-01T03:46:57.219Z,1006.77
2017-04-01T03:47:57.157Z,1006.74
2017-04-01T03:48:57.097Z,1006.76
2017-04-01T03:49:57.035Z,1006.74
2017-04-01T03:50:56.972Z,1006.77
2017-04-01T03:51:56.912Z,1006.73
2017-04-01T03:52:56.850Z,1006.76
2017-04-01T03:53:56.787Z,1006.76
2017-04-01T03:54:56.725Z,1006.77
2017-04-01T03:55:56.665Z,1006.77
2017-04-01T03:56:56.603Z,1006.79
2017-04-01T03:57:56.540Z,1006.75
2017-04-01T03:58:56.480Z,1006.75
2017-04-01T03:59:56.418Z,1006.8
2017-04-01T04:00:56.358Z,1006.78
2017-04-01T04:01:56.294Z,1006.78
2017-04-01T04:02:56.233Z,1006.76
2017-04-01T04:03:56.172Z,1006.75
2017-04-01T04:04:56.110Z,1006.72
2017-04-01T04:05:56.048Z,1006.74
2017-04-01T04:06:55.988Z,1006.78
2017-04-01T04:07:55.926Z,1006.73
2017-04-01T04:08:55.865Z,1006.75
2017-04-01T04:09:55.804Z,1006.78
2017-04-01T04:10:55.741Z,1006.77
2017-04-01T04:11:55.679Z,1006.76
2017-04-01T04:12:55.617Z,1006.76
2017-04-01T04:13:55.556Z,1006.77
2017-04-01T04:14:55.495Z,1006.81
2017-04-01T04:15:55.440Z,1006.81
2017-04-01T04:16:55.371Z,1006.8
2017-04-01T04:17:55.308Z,1006.79
2017-04-01T04:18:55.248Z,1006.82
2017-04-01T04:19:55.185Z,1006.83
2017-04-01T04:20:55.125Z,1006.82
2017-04-01T04:21:55.063Z,1006.86
2017-04-01T04:22:55.002Z,1006.82
2017-04-01T04:23:54.939Z,1006.83
2017-04-01T04:24:54.878Z,1006.84
2017-04-01T04:25:54.827Z,1006.87
2017-04-01T04:26:54.754Z,1006.87
2017-04-01T04:27:54.694Z,1006.85
2017-04-01T04:28:54.632Z,1006.86
2017-04-01T04:29:54.570Z,1006.85
2017-04-01T04:30:54.508Z,1006.93
2017-04-01T04:31:54.447Z,1007.22
2017-04-01T04:32:54.385Z,1007.09
2017-04-01T04:33:54.325Z,1006.88
2017-04-01T04:34:54.263Z,1006.95
2017-04-01T04:35:54.201Z,1006.91
2017-04-01T04:36:54.140Z,1006.93
2017-04-01T04:37:54.077Z,1006.9
2017-04-01T04:38:54.015Z,1006.91
2017-04-01T04:39:53.954Z,1006.93
2017-04-01T04:40:53.893Z,1006.95
2017-04-01T04:41:53.831Z,1006.92
2017-04-01T04:42:53.768Z,1006.93
2017-04-01T04:43:53.708Z,1006.91
2017-04-01T04:44:53.646Z,1006.93
2017-04-01T04:45:53.585Z,1006.93
2017-04-01T04:46:53.524Z,1006.91
2017-04-01T04:47:53.464Z,1006.91
2017-04-01T04:48:53.401Z,1006.93
2017-04-01T04:49:53.339Z,1006.92
2017-04-01T04:50:53.279Z,1006.91
2017-04-01T04:51:53.218Z,1006.94
2017-04-01T04:52:53.155Z,1006.99
2017-04-01T04:53:53.093Z,1006.91
2017-04-01T04:54:53.031Z,1006.95
2017-04-01T04:55:52.969Z,1006.91
2017-04-01T04:56:52.909Z,1006.92
2017-04-01T04:57:52.847Z,1006.93
2017-04-01T04:58:52.785Z,1006.95
2017-04-01T04:59:52.723Z,1007
2017-04-01T05:00:52.662Z,1006.96
2017-04-01T05:01:52.606Z,1006.98
2017-04-01T05:02:52.539Z,1006.98
2017-04-01T05:03:52.477Z,1007.02
2017-04-01T05:04:52.417Z,1007
2017-04-01T05:05:52.356Z,1007.03
2017-04-01T05:06:52.292Z,1007.02
2017-04-01T05:07:52.231Z,1007.03
2017-04-01T05:08:52.169Z,1007.05
2017-04-01T05:09:52.109Z,1007.02
2017-04-01T05:10:52.047Z,1007.04
2017-04-01T05:11:51.984Z,1007.07
2017-04-01T05:12:51.923Z,1007.09
2017-04-01T05:13:51.861Z,1007.07
2017-04-01T05:14:51.800Z,1007.07
2017-04-01T05:15:51.738Z,1007.12
2017-04-01T05:16:51.677Z,1007.14
2017-04-01T05:17:51.614Z,1007.13
2017-04-01T05:18:51.554Z,1007.17
2017-04-01T05:19:51.491Z,1007.19
2017-04-01T05:20:51.431Z,1007.2
2017-04-01T05:21:51.369Z,1007.21
2017-04-01T05:22:51.307Z,1007.24
2017-04-01T05:23:51.245Z,1007.19
2017-04-01T05:24:51.184Z,1007.21
2017-04-01T05:25:51.122Z,1007.21
2017-04-01T05:26:51.060Z,1007.18
2017-04-01T05:27:50.998Z,1007.18
2017-04-01T05:28:50.937Z,1007.2
2017-04-01T05:29:50.875Z,1007.13
2017-04-01T05:30:50.814Z,1007.14
2017-04-01T05:31:50.752Z,1007.13
2017-04-01T05:32:50.690Z,1007.1
2017-04-01T05:33:50.628Z,1007.12
2017-04-01T05:34:50.567Z,1007.07
2017-04-01T05:35:50.506Z,1007.05
2017-04-01T05:36:50.444Z,1007.08
2017-04-01T05:37:50.383Z,1007.08
2017-04-01T05:38:50.321Z,1007.05
2017-04-01T05:39:50.258Z,1007.05
2017-04-01T05:40:50.198Z,1007.04
2017-04-01T05:41:50.136Z,1007.05
2017-04-01T05:42:50.075Z,1007.05
2017-04-01T05:43:50.013Z,1007.05
2017-04-01T05:44:49.950Z,1007.06
2017-04-01T05:45:49.889Z,1007.05
2017-04-01T05:46:49.828Z,1007.11
2017-04-01T05:47:49.767Z,1007.11
2017-04-01T05:48:49.704Z,1007.12
2017-04-01T05:49:49.643Z,1007.12
2017-04-01T05:50:49.580Z,1007.11
2017-04-01T05:51:49.520Z,1007.07
2017-04-01T05:52:49.457Z,1007.09
2017-04-01T05:53:49.395Z,1007.1
2017-04-01T05:54:49.334Z,1007.08
2017-04-01T05:55:49.272Z,1007.08
2017-04-01T05:56:49.211Z,1007.1
2017-04-01T05:57:49.150Z,1007.08
2017-04-01T05:58:49.087Z,1007.07
2017-04-01T05:59:49.026Z,1007.09
2017-04-01T06:00:48.964Z,1007.14
2017-04-01T06:01:48.902Z,1007.13
2017-04-01T06:02:48.840Z,1007.17
2017-04-01T06:03:48.779Z,1007.2
2017-04-01T06:04:48.719Z,1007.18
2017-04-01T06:05:48.655Z,1007.19
2017-04-01T06:06:48.595Z,1007.14
2017-04-01T06:07:48.532Z,1007.21
2017-04-01T06:08:48.471Z,1007.21
2017-04-01T06:09:48.410Z,1007.17
2017-04-01T06:10:48.348Z,1007.2
2017-04-01T06:11:48.286Z,1007.19
2017-04-01T06:12:48.224Z,1007.17
2017-04-01T06:13:48.162Z,1007.16
2017-04-01T06:14:48.100Z,1007.16
2017-04-01T06:15:48.039Z,1007.16
2017-04-01T06:16:47.977Z,1007.17
2017-04-01T06:17:47.915Z,1007.18
2017-04-01T06:18:47.853Z,1007.14
2017-04-01T06:19:47.793Z,1007.16
2017-04-01T06:20:47.732Z,1007.17
2017-04-01T06:21:47.670Z,1007.2
2017-04-01T06:22:47.608Z,1007.19
2017-04-01T06:23:47.546Z,1007.21
2017-04-01T06:24:47.485Z,1007.2
2017-04-01T06:25:47.423Z,1007.21
2017-04-01T06:26:47.362Z,1007.21
2017-04-01T06:27:47.300Z,1007.2
2017-04-01T06:28:47.238Z,1007.22
2017-04-01T06:29:47.177Z,1007.22
2017-04-01T06:30:47.115Z,1007.22
2017-04-01T06:31:47.054Z,1007.19
2017-04-01T06:32:46.991Z,1007.18
2017-04-01T06:33:46.930Z,1007.2
2017-04-01T06:34:46.868Z,1007.16
2017-04-01T06:35:46.806Z,1007.18
2017-04-01T06:36:46.745Z,1007.18
2017-04-01T06:37:46.683Z,1007.2
2017-04-01T06:38:46.620Z,1007.2
2017-04-01T06:39:46.559Z,1007.14
2017-04-01T06:40:46.498Z,1007.2
2017-04-01T06:41:46.436Z,1007.2
2017-04-01T06:42:46.374Z,1007.18
2017-04-01T06:43:46.314Z,1007.18
2017-04-01T06:44:46.256Z,1007.17
2017-04-01T06:45:46.189Z,1007.21
2017-04-01T06:46:46.128Z,1007.23
2017-04-01T06:47:46.066Z,1007.27
2017-04-01T06:48:46.004Z,1007.25
2017-04-01T06:49:45.942Z,1007.29
2017-04-01T06:50:45.881Z,1007.3
2017-04-01T06:51:45.820Z,1007.29
2017-04-01T06:52:45.756Z,1007.3
2017-04-01T06:53:45.695Z,1007.33
2017-04-01T06:54:45.634Z,1007.31
2017-04-01T06:55:45.574Z,1007.34
2017-04-01T06:56:45.512Z,1007.35
2017-04-01T06:57:45.449Z,1007.35
2017-04-01T06:58:45.388Z,1007.35
2017-04-01T06:59:45.327Z,1007.38
2017-04-01T07:00:45.264Z,1007.4
2017-04-01T07:01:45.202Z,1007.37
2017-04-01T07:02:45.140Z,1007.39
2017-04-01T07:03:45.078Z,1007.36
2017-04-01T07:04:45.016Z,1007.33
2017-04-01T07:05:44.955Z,1007.36
2017-04-01T07:06:44.896Z,1007.34
2017-04-01T07:07:44.831Z,1007.38
2017-04-01T07:08:44.773Z,1007.34
2017-04-01T07:09:44.710Z,1007.36
2017-04-01T07:10:44.650Z,1007.37
2017-04-01T07:11:44.586Z,1007.36
2017-04-01T07:12:44.524Z,1007.37
2017-04-01T07:13:44.461Z,1007.34
2017-04-01T07:14:44.399Z,1007.35
2017-04-01T07:15:44.338Z,1007.33
2017-04-01T07:16:44.277Z,1007.33
2017-04-01T07:17:44.216Z,1007.33
2017-04-01T07:18:44.153Z,1007.34
2017-04-01T07:19:44.092Z,1007.34
2017-04-01T07:20:44.030Z,1007.36
2017-04-01T07:21:43.969Z,1007.36
2017-04-01T07:22:43.906Z,1007.38
2017-04-01T07:23:43.845Z,1007.37
2017-04-01T07:24:43.782Z,1007.4
2017-04-01T07:25:43.722Z,1007.4
2017-04-01T07:26:43.659Z,1007.33
2017-04-01T07:27:43.598Z,1007.35
2017-04-01T07:28:43.536Z,1007.35
2017-04-01T07:29:43.474Z,1007.38
2017-04-01T07:30:43.414Z,1007.36
2017-04-01T07:31:43.350Z,1007.36
2017-04-01T07:32:43.290Z,1007.37
2017-04-01T07:33:43.227Z,1007.4
2017-04-01T07:34:43.166Z,1007.38
2017-04-01T07:35:43.106Z,1007.35
2017-04-01T07:36:43.042Z,1007.38
2017-04-01T07:37:42.981Z,1007.34
2017-04-01T07:38:42.919Z,1007.35
2017-04-01T07:39:42.858Z,1007.39
2017-04-01T07:40:42.795Z,1007.38
2017-04-01T07:41:42.734Z,1007.36
2017-04-01T07:42:42.673Z,1007.34
2017-04-01T07:43:42.610Z,1007.35
2017-04-01T07:44:42.562Z,1007.35
2017-04-01T07:45:42.489Z,1007.35
2017-04-01T07:46:42.426Z,1007.32
2017-04-01T07:47:42.362Z,1007.32
2017-04-01T07:48:42.302Z,1007.34
2017-04-01T07:49:42.241Z,1007.35
2017-04-01T07:50:42.179Z,1007.36
2017-04-01T07:51:42.117Z,1007.35
2017-04-01T07:52:42.055Z,1007.33
2017-04-01T07:53:41.994Z,1007.35
2017-04-01T07:54:41.932Z,1007.31
2017-04-01T07:55:41.872Z,1007.32
2017-04-01T07:56:41.810Z,1007.33
2017-04-01T07:57:41.748Z,1007.3
2017-04-01T07:58:41.687Z,1007.31
2017-04-01T07:59:41.625Z,1007.34
2017-04-01T08:00:41.563Z,1007.32
2017-04-01T08:01:41.503Z,1007.29
2017-04-01T08:02:41.438Z,1007.33
2017-04-01T08:03:41.378Z,1007.33
2017-04-01T08:04:41.317Z,1007.31
2017-04-01T08:05:41.254Z,1007.31
2017-04-01T08:06:41.192Z,1007.3
2017-04-01T08:07:41.131Z,1007.32
2017-04-01T08:08:41.072Z,1007.31
2017-04-01T08:09:41.010Z,1007.33
2017-04-01T08:10:40.947Z,1007.33
2017-04-01T08:11:40.884Z,1007.35
2017-04-01T08:12:40.823Z,1007.34
2017-04-01T08:13:40.760Z,1007.35
2017-04-01T08:14:40.701Z,1007.37
2017-04-01T08:15:40.638Z,1007.34
2017-04-01T08:16:40.576Z,1007.35
2017-04-01T08:17:40.514Z,1007.34
2017-04-01T08:18:40.452Z,1007.33
2017-04-01T08:19:40.391Z,1007.34
2017-04-01T08:20:40.329Z,1007.33
2017-04-01T08:21:40.268Z,1007.35
2017-04-01T08:22:40.206Z,1007.34
2017-04-01T08:23:40.144Z,1007.36
2017-04-01T08:24:40.082Z,1007.31
2017-04-01T08:25:40.020Z,1007.35
2017-04-01T08:26:39.959Z,1007.32
2017-04-01T08:27:39.897Z,1007.34
2017-04-01T08:28:39.836Z,1007.34
2017-04-01T08:29:39.774Z,1007.34
2017-04-01T08:30:39.713Z,1007.33
2017-04-01T08:31:39.650Z,1007.36
2017-04-01T08:32:39.589Z,1007.33
2017-04-01T08:33:39.527Z,1007.33
2017-04-01T08:34:39.466Z,1007.3
2017-04-01T08:35:39.403Z,1007.3
2017-04-01T08:36:39.341Z,1007.31
2017-04-01T08:37:39.280Z,1007.31
2017-04-01T08:38:39.218Z,1007.28
2017-04-01T08:39:39.156Z,1007.26
2017-04-01T08:40:39.095Z,1007.25
2017-04-01T08:41:39.033Z,1007.26
2017-04-01T08:42:38.971Z,1007.22
2017-04-01T08:43:38.910Z,1007.25
2017-04-01T08:44:38.851Z,1007.26
2017-04-01T08:45:38.787Z,1007.2
2017-04-01T08:46:38.726Z,1007.23
2017-04-01T08:47:38.663Z,1007.21
2017-04-01T08:48:38.603Z,1007.21
2017-04-01T08:49:38.541Z,1007.19
2017-04-01T08:50:38.478Z,1007.2
2017-04-01T08:51:38.416Z,1007.18
2017-04-01T08:52:38.356Z,1007.22
2017-04-01T08:53:38.292Z,1007.19
2017-04-01T08:54:38.232Z,1007.17
2017-04-01T08:55:38.170Z,1007.15
2017-04-01T08:56:38.109Z,1007.15
2017-04-01T08:57:38.046Z,1007.15
2017-04-01T08:58:37.988Z,1007.13
2017-04-01T08:59:37.923Z,1007.15
2017-04-01T09:00:37.866Z,1007.18
2017-04-01T09:01:37.799Z,1007.16
2017-04-01T09:02:37.738Z,1007.18
2017-04-01T09:03:37.677Z,1007.11
2017-04-01T09:04:37.615Z,1007.16
2017-04-01T09:05:37.553Z,1007.15
2017-04-01T09:06:37.491Z,1007.14
2017-04-01T09:07:37.430Z,1007.13
2017-04-01T09:08:37.367Z,1007.11
2017-04-01T09:09:37.306Z,1007.13
2017-04-01T09:10:37.245Z,1007.15
2017-04-01T09:11:37.183Z,1007.11
2017-04-01T09:12:37.121Z,1007.1
2017-04-01T09:13:37.059Z,1007.12
2017-04-01T09:14:36.998Z,1007.11
2017-04-01T09:15:36.944Z,1007.1
2017-04-01T09:16:36.901Z,1007.11
2017-04-01T09:17:36.816Z,1007.15
2017-04-01T09:18:36.752Z,1007.09
2017-04-01T09:19:36.690Z,1007.11
2017-04-01T09:20:36.628Z,1007.1
2017-04-01T09:21:36.566Z,1007.14
2017-04-01T09:22:36.504Z,1007.1
2017-04-01T09:23:36.442Z,1007.09
2017-04-01T09:24:36.382Z,1007.08
2017-04-01T09:25:36.321Z,1007.08
2017-04-01T09:26:36.258Z,1007.11
2017-04-01T09:27:36.197Z,1007.08
2017-04-01T09:28:36.135Z,1007.08
2017-04-01T09:29:36.074Z,1007.11
2017-04-01T09:30:36.011Z,1007.07
2017-04-01T09:31:35.950Z,1007.06
2017-04-01T09:32:35.890Z,1007.05
2017-04-01T09:33:35.827Z,1007.06
2017-04-01T09:34:35.770Z,1007.04
2017-04-01T09:35:35.703Z,1007.06
2017-04-01T09:36:35.642Z,1007.04
2017-04-01T09:37:35.579Z,1007.05
2017-04-01T09:38:35.520Z,1007.04
2017-04-01T09:39:35.457Z,1007.03
2017-04-01T09:40:35.394Z,1007
2017-04-01T09:41:35.334Z,1007.05
2017-04-01T09:42:35.281Z,1006.98
2017-04-01T09:43:35.223Z,1007.05
2017-04-01T09:44:35.149Z,1007.03
2017-04-01T09:45:35.087Z,1007
2017-04-01T09:46:35.026Z,1007.02
2017-04-01T09:47:34.963Z,1006.99
2017-04-01T09:48:34.901Z,1007.01
2017-04-01T09:49:34.840Z,1007.04
2017-04-01T09:50:34.779Z,1007.01
2017-04-01T09:51:34.716Z,1007
2017-04-01T09:52:34.654Z,1007.04
2017-04-01T09:53:34.598Z,1007.05
2017-04-01T09:54:34.531Z,1007.04
2017-04-01T09:55:34.470Z,1007.08
2017-04-01T09:56:34.408Z,1007.06
2017-04-01T09:57:34.346Z,1007.02
2017-04-01T09:58:34.285Z,1007.01
2017-04-01T09:59:34.224Z,1007
2017-04-01T10:00:34.160Z,1007.01
2017-04-01T10:01:34.102Z,1006.98
2017-04-01T10:02:34.047Z,1006.99
2017-04-01T10:03:33.975Z,1006.98
2017-04-01T10:04:33.915Z,1006.98
2017-04-01T10:05:33.853Z,1006.98
2017-04-01T10:06:33.790Z,1006.95
2017-04-01T10:07:33.730Z,1006.93
2017-04-01T10:08:33.668Z,1006.93
2017-04-01T10:09:33.606Z,1006.96
2017-04-01T10:10:33.544Z,1006.92
2017-04-01T10:11:33.483Z,1006.93
2017-04-01T10:12:33.421Z,1006.95
2017-04-01T10:13:33.360Z,1006.95
2017-04-01T10:14:33.297Z,1006.94
2017-04-01T10:15:33.235Z,1006.96
2017-04-01T10:16:33.175Z,1006.94
2017-04-01T10:17:33.111Z,1006.92
2017-04-01T10:18:33.050Z,1006.91
2017-04-01T10:19:32.989Z,1006.91
2017-04-01T10:20:32.929Z,1006.88
2017-04-01T10:21:32.867Z,1006.94
2017-04-01T10:22:32.803Z,1006.89
2017-04-01T10:23:32.742Z,1006.87
2017-04-01T10:24:32.680Z,1006.89
2017-04-01T10:25:32.619Z,1006.91
2017-04-01T10:26:32.557Z,1006.92
2017-04-01T10:27:32.497Z,1006.89
2017-04-01T10:28:32.433Z,1006.91
2017-04-01T10:29:32.372Z,1006.88
2017-04-01T10:30:32.315Z,1006.86
2017-04-01T10:31:32.249Z,1006.85
2017-04-01T10:32:32.187Z,1006.86
2017-04-01T10:33:32.125Z,1006.83
2017-04-01T10:34:32.064Z,1006.82
2017-04-01T10:35:32.001Z,1006.81
2017-04-01T10:36:31.941Z,1006.82
2017-04-01T10:37:31.878Z,1006.8
2017-04-01T10:38:31.849Z,1006.81
2017-04-01T10:39:31.755Z,1006.81
2017-04-01T10:40:31.694Z,1006.81
2017-04-01T10:41:31.632Z,1006.78
2017-04-01T10:42:31.571Z,1006.8
2017-04-01T10:43:31.508Z,1006.77
2017-04-01T10:44:31.447Z,1006.75
2017-04-01T10:45:31.386Z,1006.74
2017-04-01T10:46:31.323Z,1006.72
2017-04-01T10:47:31.262Z,1006.71
2017-04-01T10:48:31.200Z,1006.7
2017-04-01T10:49:31.139Z,1006.69
2017-04-01T10:50:31.077Z,1006.68
2017-04-01T10:51:31.018Z,1006.7
2017-04-01T10:52:30.953Z,1006.71
2017-04-01T10:53:30.892Z,1006.69
2017-04-01T10:54:30.830Z,1006.69
2017-04-01T10:55:30.768Z,1006.69
2017-04-01T10:56:30.706Z,1006.68
2017-04-01T10:57:30.644Z,1006.64
2017-04-01T10:58:30.583Z,1006.62
2017-04-01T10:59:30.521Z,1006.65
2017-04-01T11:00:30.460Z,1006.64
2017-04-01T11:01:30.402Z,1006.62
2017-04-01T11:02:30.336Z,1006.63
2017-04-01T11:03:30.275Z,1006.62
2017-04-01T11:04:30.214Z,1006.63
2017-04-01T11:05:30.152Z,1006.58
2017-04-01T11:06:30.092Z,1006.57
2017-04-01T11:07:30.029Z,1006.54
2017-04-01T11:08:29.969Z,1006.62
2017-04-01T11:09:29.909Z,1006.55
2017-04-01T11:10:29.844Z,1006.59
2017-04-01T11:11:29.783Z,1006.58
2017-04-01T11:12:29.721Z,1006.6
2017-04-01T11:13:29.660Z,1006.58
2017-04-01T11:14:29.598Z,1006.59
2017-04-01T11:15:29.535Z,1006.61
2017-04-01T11:16:29.473Z,1006.56
2017-04-01T11:17:29.412Z,1006.56
2017-04-01T11:18:29.351Z,1006.55
2017-04-01T11:19:29.288Z,1006.57
2017-04-01T11:20:29.228Z,1006.55
2017-04-01T11:21:29.166Z,1006.53
2017-04-01T11:22:29.104Z,1006.55
2017-04-01T11:23:29.041Z,1006.53
2017-04-01T11:24:28.981Z,1006.5
2017-04-01T11:25:28.919Z,1006.51
2017-04-01T11:26:28.857Z,1006.51
2017-04-01T11:27:28.796Z,1006.5
2017-04-01T11:28:28.734Z,1006.49
2017-04-01T11:29:28.673Z,1006.51
2017-04-01T11:30:28.611Z,1006.49
2017-04-01T11:31:28.549Z,1006.44
2017-04-01T11:32:28.488Z,1006.45
2017-04-01T11:33:28.428Z,1006.49
2017-04-01T11:34:28.363Z,1006.4
2017-04-01T11:35:28.302Z,1006.42
2017-04-01T11:36:28.241Z,1006.42
2017-04-01T11:37:28.178Z,1006.43
2017-04-01T11:38:28.118Z,1006.41
2017-04-01T11:39:28.056Z,1006.4
2017-04-01T11:40:27.995Z,1006.47
2017-04-01T11:41:27.932Z,1006.41
2017-04-01T11:42:27.871Z,1006.42
2017-04-01T11:43:27.810Z,1006.42
2017-04-01T11:44:27.747Z,1006.4
2017-04-01T11:45:27.685Z,1006.42
2017-04-01T11:46:27.625Z,1006.38
2017-04-01T11:47:27.562Z,1006.4
2017-04-01T11:48:27.500Z,1006.35
2017-04-01T11:49:27.439Z,1006.38
2017-04-01T11:50:27.377Z,1006.37
2017-04-01T11:51:27.319Z,1006.39
2017-04-01T11:52:27.255Z,1006.36
2017-04-01T11:53:27.192Z,1006.37
2017-04-01T11:54:27.131Z,1006.33
2017-04-01T11:55:27.070Z,1006.34
2017-04-01T11:56:27.008Z,1006.34
2017-04-01T11:57:26.946Z,1006.34
2017-04-01T11:58:26.884Z,1006.33
2017-04-01T11:59:26.823Z,1006.31
2017-04-01T12:00:26.761Z,1006.31
2017-04-01T12:01:26.699Z,1006.29
2017-04-01T12:02:26.638Z,1006.32
2017-04-01T12:03:26.576Z,1006.27
2017-04-01T12:04:26.514Z,1006.31
2017-04-01T12:05:26.453Z,1006.28
2017-04-01T12:06:26.391Z,1006.32
2017-04-01T12:07:26.329Z,1006.27
2017-04-01T12:08:26.268Z,1006.31